Time;durP1;ratioP1;P1;durP2;ratioP2;P2;SDS_P1;SDS_P2;PMS_P1;PMS_P2;Temp;Humidity;BMP_temperature;BMP_pressure;BME280_temperature;BME280_humidity;BME280_pressure;Samples;Min_cycle;Max_cycle;Signal;HPM_P1;HPM_P2
2023/02/01 00:01:43;;;;;;;9.60;3.90;;;5.20;99.90;;;;;;5096087;28;20240;-74
2023/02/01 00:04:08;;;;;;;9.57;3.90;;;5.20;99.90;;;;;;5114196;28;20039;-76
2023/02/01 00:06:34;;;;;;;9.73;3.70;;;5.20;99.90;;;;;;5095546;28;20027;-74
2023/02/01 00:09:00;;;;;;;6.57;3.73;;;5.30;99.90;;;;;;5095810;28;20460;-74
2023/02/01 00:11:26;;;;;;;8.33;3.80;;;5.20;99.90;;;;;;5095189;28;20375;-74
2023/02/01 00:13:52;;;;;;;6.60;3.43;;;5.30;99.90;;;;;;5095567;28;20469;-74
2023/02/01 00:16:21;;;;;;;8.33;3.50;;;5.30;99.90;;;;;;5094105;28;20385;-74
2023/02/01 00:18:49;;;;;;;6.47;3.53;;;5.30;99.90;;;;;;5113671;28;20072;-74
2023/02/01 00:21:16;;;;;;;8.23;3.03;;;5.30;99.90;;;;;;5113294;28;20062;-75
2023/02/01 00:23:41;;;;;;;4.80;2.93;;;5.30;99.90;;;;;;5113744;28;20085;-74
2023/02/01 00:26:14;;;;;;;6.77;3.47;;;5.30;99.90;;;;;;5095449;28;20036;-74
2023/02/01 00:28:40;;;;;;;10.50;3.10;;;5.30;99.90;;;;;;5095531;28;20090;-74
2023/02/01 00:31:05;;;;;;;5.60;2.97;;;5.30;99.90;;;;;;5113727;28;20457;-74
2023/02/01 00:33:32;;;;;;;5.50;3.30;;;5.30;99.90;;;;;;5094532;28;20019;-74
2023/02/01 00:36:03;;;;;;;5.33;2.97;;;5.30;99.90;;;;;;5095498;28;20118;-74
2023/02/01 00:38:30;;;;;;;5.95;3.38;;;5.30;99.90;;;;;;5094773;28;20380;-74
2023/02/01 00:41:03;;;;;;;4.77;2.90;;;5.40;99.90;;;;;;5095357;28;20045;-74
2023/02/01 00:43:30;;;;;;;6.03;3.10;;;5.40;99.90;;;;;;5112879;28;20381;-73
2023/02/01 00:45:56;;;;;;;4.40;2.63;;;5.40;99.90;;;;;;5095224;28;20033;-74
2023/02/01 00:48:22;;;;;;;7.47;3.33;;;5.40;99.90;;;;;;5094708;28;20072;-74
2023/02/01 00:50:47;;;;;;;6.90;2.73;;;5.30;99.90;;;;;;5095139;28;20030;-74
2023/02/01 00:53:13;;;;;;;4.63;2.90;;;5.40;99.90;;;;;;5113086;28;20076;-75
2023/02/01 00:55:38;;;;;;;6.07;3.00;;;5.40;99.90;;;;;;5112894;28;20024;-74
2023/02/01 00:58:05;;;;;;;6.93;3.30;;;5.30;99.90;;;;;;5113057;28;20081;-73
2023/02/01 01:00:32;;;;;;;5.17;2.93;;;5.40;99.90;;;;;;5094424;28;20063;-74
2023/02/01 01:02:58;;;;;;;5.57;3.03;;;5.30;99.90;;;;;;5113425;28;20043;-74
2023/02/01 01:05:23;;;;;;;5.03;2.93;;;5.40;99.90;;;;;;5094317;28;20085;-74
2023/02/01 01:07:49;;;;;;;4.77;2.73;;;5.40;99.90;;;;;;5094762;28;20024;-74
2023/02/01 01:10:15;;;;;;;7.57;3.00;;;5.40;99.90;;;;;;5112760;28;20020;-76
2023/02/01 01:12:41;;;;;;;8.57;2.90;;;5.40;99.90;;;;;;5094774;28;20023;-74
2023/02/01 01:15:08;;;;;;;6.23;2.97;;;5.30;99.90;;;;;;5095226;28;20028;-74
2023/02/01 01:17:33;;;;;;;8.10;2.90;;;5.30;99.90;;;;;;5094307;28;20085;-74
2023/02/01 01:19:59;;;;;;;4.53;2.60;;;5.30;99.90;;;;;;5094383;28;20051;-74
2023/02/01 01:22:24;;;;;;;3.33;2.47;;;5.30;99.90;;;;;;5094332;28;20026;-74
2023/02/01 01:24:50;;;;;;;5.37;2.70;;;5.30;99.90;;;;;;5094612;28;20066;-74
2023/02/01 01:27:22;;;;;;;5.67;2.53;;;5.30;99.90;;;;;;5098320;28;20031;-75
2023/02/01 01:29:48;;;;;;;4.83;2.60;;;5.30;99.90;;;;;;5101705;28;20032;-74
2023/02/01 01:32:13;;;;;;;3.87;2.57;;;5.30;99.90;;;;;;5119899;28;20023;-75
2023/02/01 01:34:39;;;;;;;5.10;2.57;;;5.30;99.90;;;;;;5119220;28;20024;-74
2023/02/01 01:37:04;;;;;;;3.47;2.00;;;5.30;99.90;;;;;;5101327;28;20027;-74
2023/02/01 01:39:30;;;;;;;3.97;2.03;;;5.30;99.90;;;;;;5100793;28;20108;-74
2023/02/01 01:41:56;;;;;;;5.33;2.40;;;5.40;99.90;;;;;;5101385;28;20028;-74
2023/02/01 01:44:59;;;;;;;3.70;2.17;;;5.40;99.90;;;;;;5119003;28;20035;-74
2023/02/01 01:47:28;;;;;;;4.10;2.40;;;5.40;99.90;;;;;;5118980;28;20028;-74
2023/02/01 01:49:54;;;;;;;4.00;2.00;;;5.40;99.90;;;;;;5101312;28;20023;-73
2023/02/01 01:52:20;;;;;;;4.67;2.10;;;5.30;99.90;;;;;;5100579;28;20372;-74
2023/02/01 01:54:49;;;;;;;2.50;1.83;;;5.40;99.90;;;;;;5101301;28;20038;-74
2023/02/01 01:57:20;;;;;;;4.07;2.07;;;5.30;99.90;;;;;;5119237;28;20039;-73
2023/02/01 01:59:54;;;;;;;2.47;1.80;;;5.40;99.90;;;;;;5100948;28;20055;-74
2023/02/01 02:02:20;;;;;;;3.23;2.20;;;5.40;99.90;;;;;;5092243;28;20036;-74
2023/02/01 02:04:47;;;;;;;4.07;2.20;;;5.40;99.90;;;;;;5098640;28;20089;-73
2023/02/01 02:07:19;;;;;;;3.30;2.30;;;5.30;99.90;;;;;;5098826;28;20513;-73
2023/02/01 02:09:45;;;;;;;4.20;2.23;;;5.30;99.90;;;;;;5080626;28;20477;-73
2023/02/01 02:12:11;;;;;;;5.30;2.30;;;5.30;99.90;;;;;;5098709;28;20024;-73
2023/02/01 02:14:37;;;;;;;3.03;2.10;;;5.30;99.90;;;;;;5098052;28;20028;-74
2023/02/01 02:17:30;;;;;;;3.83;2.07;;;5.30;99.90;;;;;;5080856;28;20028;-74
2023/02/01 02:20:16;;;;;;;3.20;2.30;;;5.30;99.90;;;;;;5080420;28;20157;-74
2023/02/01 02:23:10;;;;;;;4.03;2.10;;;5.30;99.90;;;;;;5079786;28;20484;-74
2023/02/01 02:25:55;;;;;;;3.70;2.03;;;5.30;99.90;;;;;;5097923;28;20067;-74
2023/02/01 02:29:04;;;;;;;3.70;2.10;;;5.30;99.90;;;;;;5080022;28;20024;-77
2023/02/01 02:31:58;;;;;;;4.00;2.17;;;5.30;99.90;;;;;;5098078;28;20035;-74
2023/02/01 02:34:32;;;;;;;4.67;2.40;;;5.30;99.90;;;;;;5059113;28;20036;-75
2023/02/01 02:37:35;;;;;;;5.93;2.00;;;5.30;99.90;;;;;;5080503;28;20028;-74
2023/02/01 02:40:21;;;;;;;6.77;2.20;;;5.30;99.90;;;;;;5076489;28;20031;-74
2023/02/01 02:49:01;;;;;;;4.67;1.83;;;5.30;99.90;;;;;;5094341;28;20035;-74
2023/02/01 02:54:46;;;;;;;3.10;1.90;;;5.30;99.90;;;;;;5094882;28;20031;-75
2023/02/01 03:05:47;;;;;;;2.30;1.50;;;5.40;99.90;;;;;;5094328;28;20093;-74
2023/02/01 03:08:19;;;;;;;2.60;1.70;;;5.30;99.90;;;;;;5094899;28;20110;-74
2023/02/01 03:11:03;;;;;;;2.75;1.75;;;5.40;99.90;;;;;;5076059;28;20028;-74
2023/02/01 03:13:47;;;;;;;2.43;1.70;;;5.40;99.90;;;;;;5075954;28;20024;-75
2023/02/01 03:16:17;;;;;;;3.10;2.00;;;5.40;99.90;;;;;;5094847;28;20128;-74
2023/02/01 03:18:50;;;;;;;2.47;1.40;;;5.30;99.90;;;;;;5093992;28;20083;-74
2023/02/01 03:21:36;;;;;;;4.87;1.83;;;5.30;99.90;;;;;;5094925;28;20069;-74
2023/02/01 03:24:07;;;;;;;3.33;1.53;;;5.40;99.90;;;;;;5112628;28;20372;-74
2023/02/01 03:26:38;;;;;;;3.47;2.27;;;5.30;99.90;;;;;;5114189;28;20107;-74
2023/02/01 03:29:18;;;;;;;4.87;1.80;;;5.40;99.90;;;;;;5096842;28;20026;-74
2023/02/01 03:31:44;;;;;;;3.30;1.80;;;5.40;99.90;;;;;;5114185;28;20039;-74
2023/02/01 03:34:12;;;;;;;5.03;1.93;;;5.40;99.90;;;;;;5096826;28;20031;-74
2023/02/01 03:36:44;;;;;;;2.47;1.87;;;5.30;99.90;;;;;;5114296;28;20499;-74
2023/02/01 03:39:16;;;;;;;;;;;5.30;99.90;;;;;;5115597;28;20157;-74
2023/02/01 03:41:55;;;;;;;2.95;1.80;;;5.30;99.90;;;;;;5095945;28;19908;-74
2023/02/01 03:44:26;;;;;;;4.53;2.13;;;5.40;99.90;;;;;;5096228;28;20126;-73
2023/02/01 03:47:04;;;;;;;2.28;1.65;;;5.40;99.90;;;;;;5096597;28;20031;-73
2023/02/01 03:49:35;;;;;;;3.17;1.93;;;5.30;99.90;;;;;;5095084;28;20400;-74
2023/02/01 03:52:03;;;;;;;3.53;1.70;;;5.40;99.90;;;;;;5096067;28;20539;-74
2023/02/01 03:54:30;;;;;;;2.80;1.70;;;5.40;99.90;;;;;;5095579;28;20031;-74
2023/02/01 03:56:59;;;;;;;5.40;2.30;;;5.40;99.90;;;;;;5095874;28;20035;-73
2023/02/01 03:59:25;;;;;;;3.53;2.00;;;5.40;99.90;;;;;;5095221;28;20054;-77
2023/02/01 04:01:50;;;;;;;4.77;2.17;;;5.40;99.90;;;;;;5113702;28;20473;-74
2023/02/01 04:04:19;;;;;;;3.57;1.80;;;5.40;99.90;;;;;;5095719;28;20381;-74
2023/02/01 04:06:51;;;;;;;3.27;2.00;;;5.40;99.90;;;;;;5113552;28;20042;-74
2023/02/01 04:09:17;;;;;;;4.30;2.25;;;5.40;99.90;;;;;;5095956;28;20027;-74
2023/02/01 04:11:43;;;;;;;4.10;2.20;;;5.40;99.90;;;;;;5095021;28;20027;-74
2023/02/01 04:14:08;;;;;;;5.10;2.40;;;5.40;99.90;;;;;;5095778;28;20028;-74
2023/02/01 04:16:34;;;;;;;4.50;2.10;;;5.30;99.90;;;;;;5095196;28;20050;-74
2023/02/01 04:19:00;;;;;;;4.13;2.00;;;5.40;99.90;;;;;;5113697;28;20103;-74
2023/02/01 04:21:26;;;;;;;3.40;1.83;;;5.40;99.90;;;;;;5095293;28;20396;-77
2023/02/01 04:23:53;;;;;;;3.93;2.13;;;5.40;99.90;;;;;;5113564;28;20053;-74
2023/02/01 04:26:20;;;;;;;4.80;2.07;;;5.40;99.90;;;;;;5095244;28;20081;-74
2023/02/01 04:28:48;;;;;;;3.17;2.10;;;5.40;99.90;;;;;;5095060;28;20027;-74
2023/02/01 04:31:15;;;;;;;3.00;2.30;;;5.40;99.90;;;;;;5095436;28;20028;-74
2023/02/01 04:33:41;;;;;;;3.77;1.93;;;5.50;99.90;;;;;;5113149;28;20445;-74
2023/02/01 04:36:07;;;;;;;4.10;2.13;;;5.40;99.90;;;;;;5113517;28;20028;-74
2023/02/01 04:38:32;;;;;;;4.77;2.20;;;5.40;99.90;;;;;;5112879;28;20024;-75
2023/02/01 04:40:59;;;;;;;4.00;2.40;;;5.40;99.90;;;;;;5095126;28;20388;-74
2023/02/01 04:43:25;;;;;;;4.07;2.30;;;5.30;99.90;;;;;;5095035;28;20080;-74
2023/02/01 04:45:51;;;;;;;5.23;2.67;;;5.30;99.90;;;;;;5112519;28;20456;-74
2023/02/01 04:48:18;;;;;;;3.63;2.17;;;5.30;99.90;;;;;;5092803;28;20461;-74
2023/02/01 04:50:47;;;;;;;4.07;2.13;;;5.30;99.90;;;;;;5092203;28;20020;-74
2023/02/01 04:53:14;;;;;;;3.07;2.10;;;5.30;99.90;;;;;;5074553;28;20028;-74
2023/02/01 04:55:39;;;;;;;3.33;2.20;;;5.30;99.90;;;;;;5074208;28;20427;-74
2023/02/01 04:58:05;;;;;;;3.17;2.00;;;5.30;99.90;;;;;;5102907;28;20024;-74
2023/02/01 05:00:31;;;;;;;4.50;2.87;;;5.30;99.90;;;;;;5112493;28;20036;-75
2023/02/01 05:02:56;;;;;;;4.47;2.10;;;5.20;99.90;;;;;;5078771;28;20461;-74
2023/02/01 05:05:22;;;;;;;4.27;2.70;;;5.30;99.90;;;;;;5104749;28;20457;-73
2023/02/01 05:07:47;;;;;;;4.73;2.60;;;5.30;99.90;;;;;;5112258;28;20040;-74
2023/02/01 05:10:13;;;;;;;3.40;2.17;;;5.30;99.90;;;;;;5094519;28;20026;-74
2023/02/01 05:15:23;;;;;;;3.40;2.20;;;5.20;99.90;;;;;;5107763;28;20034;-75
2023/02/01 05:17:48;;;;;;;2.77;2.20;;;5.20;99.90;;;;;;5108744;28;20016;-74
2023/02/01 05:20:14;;;;;;;4.27;2.20;;;5.20;99.90;;;;;;5088764;28;20393;-74
2023/02/01 05:22:41;;;;;;;4.57;2.37;;;5.20;99.90;;;;;;5090420;28;20016;-74
2023/02/01 05:25:07;;;;;;;3.97;2.20;;;5.20;99.90;;;;;;5091275;28;20060;-73
2023/02/01 05:27:32;;;;;;;4.03;2.30;;;5.20;99.90;;;;;;5093761;28;20027;-75
2023/02/01 05:29:58;;;;;;;3.60;2.17;;;5.20;99.90;;;;;;5094044;28;20027;-74
2023/02/01 05:32:24;;;;;;;4.67;2.40;;;5.10;99.90;;;;;;5112690;28;20036;-74
2023/02/01 05:34:49;;;;;;;4.70;2.30;;;5.10;99.90;;;;;;5088292;28;20106;-74
2023/02/01 05:37:15;;;;;;;3.70;2.20;;;5.20;99.90;;;;;;5090820;28;20076;-74
2023/02/01 05:39:41;;;;;;;5.30;2.60;;;5.20;99.90;;;;;;5090256;28;20516;-74
2023/02/01 05:42:06;;;;;;;3.03;2.27;;;5.20;99.90;;;;;;5090471;28;20031;-74
2023/02/01 05:44:32;;;;;;;4.07;2.43;;;5.20;99.90;;;;;;5090511;28;20434;-76
2023/02/01 05:46:57;;;;;;;4.60;2.53;;;5.20;99.90;;;;;;5094396;28;20043;-75
2023/02/01 05:49:23;;;;;;;4.37;2.23;;;5.20;99.90;;;;;;5087892;28;20047;-74
2023/02/01 05:51:48;;;;;;;3.50;2.20;;;5.20;99.90;;;;;;5093225;28;20016;-74
2023/02/01 05:54:15;;;;;;;4.30;2.37;;;5.20;99.90;;;;;;5112304;28;20077;-73
2023/02/01 05:56:40;;;;;;;5.40;2.60;;;5.20;99.90;;;;;;5106095;28;20051;-74
2023/02/01 05:59:06;;;;;;;4.83;2.43;;;5.20;99.90;;;;;;5094184;28;20047;-74
2023/02/01 06:01:32;;;;;;;5.60;2.57;;;5.20;99.90;;;;;;5107855;28;20032;-76
2023/02/01 06:03:57;;;;;;;5.27;2.70;;;5.20;99.90;;;;;;5080100;28;20587;-74
2023/02/01 06:06:23;;;;;;;3.20;2.30;;;5.20;99.90;;;;;;5112131;28;20491;-74
2023/02/01 06:08:48;;;;;;;4.70;2.40;;;5.20;99.90;;;;;;5111619;28;20134;-74
2023/02/01 06:11:14;;;;;;;4.70;2.20;;;5.20;99.90;;;;;;5093472;28;20011;-75
2023/02/01 06:13:39;;;;;;;4.53;2.43;;;5.20;99.90;;;;;;5109334;28;20099;-74
2023/02/01 06:16:07;;;;;;;4.30;2.40;;;5.20;99.90;;;;;;5094563;28;20055;-74
2023/02/01 06:18:34;;;;;;;4.30;2.23;;;5.20;99.90;;;;;;5097292;28;20080;-75
2023/02/01 06:21:00;;;;;;;6.17;2.60;;;5.20;99.90;;;;;;5089481;28;20488;-74
2023/02/01 06:23:27;;;;;;;4.13;2.43;;;5.20;99.90;;;;;;5094685;28;20039;-73
2023/02/01 06:25:59;;;;;;;6.10;2.40;;;5.30;99.90;;;;;;5112264;28;20023;-74
2023/02/01 06:28:25;;;;;;;7.18;2.63;;;5.30;99.90;;;;;;5095704;28;20043;-73
2023/02/01 06:30:50;;;;;;;4.07;2.37;;;5.20;99.90;;;;;;5093684;28;20047;-74
2023/02/01 06:33:17;;;;;;;5.93;2.60;;;5.30;99.90;;;;;;5097284;28;20055;-73
2023/02/01 06:35:46;;;;;;;6.33;2.60;;;5.30;99.90;;;;;;5097018;28;20081;-74
2023/02/01 06:38:12;;;;;;;5.00;2.53;;;5.30;99.90;;;;;;5109876;28;20029;-73
2023/02/01 06:40:39;;;;;;;5.33;2.50;;;5.30;99.90;;;;;;5111174;28;20144;-74
2023/02/01 06:43:04;;;;;;;5.53;2.93;;;5.30;99.90;;;;;;5093751;28;20022;-74
2023/02/01 06:45:30;;;;;;;4.43;2.97;;;5.30;99.90;;;;;;5091183;28;20031;-75
2023/02/01 06:47:56;;;;;;;5.27;2.70;;;5.30;99.90;;;;;;5095867;28;20026;-74
2023/02/01 06:50:21;;;;;;;4.00;2.47;;;5.30;99.90;;;;;;5096568;28;20458;-74
2023/02/01 06:52:47;;;;;;;4.30;2.43;;;5.30;99.90;;;;;;5113796;28;20020;-73
2023/02/01 06:55:13;;;;;;;6.33;2.60;;;5.40;99.90;;;;;;5093823;28;20031;-74
2023/02/01 06:57:38;;;;;;;4.90;2.47;;;5.40;99.90;;;;;;5092480;28;20030;-74
2023/02/01 07:00:05;;;;;;;4.97;2.50;;;5.40;99.90;;;;;;5095967;28;20019;-74
2023/02/01 07:02:31;;;;;;;5.20;2.90;;;5.40;99.90;;;;;;5113822;28;20392;-73
2023/02/01 07:04:56;;;;;;;6.47;2.90;;;5.40;99.90;;;;;;5095692;28;20035;-74
2023/02/01 07:07:22;;;;;;;4.67;2.80;;;5.40;99.90;;;;;;5093283;28;20388;-74
2023/02/01 07:09:49;;;;;;;5.03;2.67;;;5.40;99.90;;;;;;5112622;28;20038;-74
2023/02/01 07:12:15;;;;;;;11.80;3.27;;;5.40;99.90;;;;;;5108511;28;20023;-74
2023/02/01 07:14:40;;;;;;;4.83;2.50;;;5.40;99.90;;;;;;5096112;28;20020;-74
2023/02/01 07:17:06;;;;;;;5.80;2.97;;;5.40;99.90;;;;;;5096928;28;20114;-73
2023/02/01 07:19:31;;;;;;;7.37;3.00;;;5.40;99.90;;;;;;5114880;28;20047;-74
2023/02/01 07:21:57;;;;;;;5.77;3.17;;;5.40;99.90;;;;;;5105872;28;20027;-74
2023/02/01 07:24:23;;;;;;;7.87;3.10;;;5.40;99.90;;;;;;5087727;28;20019;-73
2023/02/01 07:26:50;;;;;;;4.27;2.53;;;5.40;99.90;;;;;;5094221;28;20038;-73
2023/02/01 07:29:17;;;;;;;5.90;2.87;;;5.40;99.90;;;;;;5113969;28;20108;-74
2023/02/01 07:31:42;;;;;;;7.47;3.13;;;5.40;99.90;;;;;;5112792;28;20074;-74
2023/02/01 07:34:08;;;;;;;3.93;2.70;;;5.40;99.90;;;;;;5089452;28;20493;-73
2023/02/01 07:36:36;;;;;;;7.47;3.10;;;5.40;99.90;;;;;;5084825;28;20461;-76
2023/02/01 07:39:02;;;;;;;6.03;2.80;;;5.40;99.90;;;;;;5111746;28;20062;-73
2023/02/01 07:41:27;;;;;;;3.93;2.70;;;5.30;99.90;;;;;;5095176;28;20070;-73
2023/02/01 07:43:53;;;;;;;5.20;2.93;;;5.40;99.90;;;;;;5095059;28;20077;-73
2023/02/01 07:46:19;;;;;;;5.93;2.60;;;5.30;99.90;;;;;;5085362;28;20115;-73
2023/02/01 07:48:45;;;;;;;6.13;2.90;;;5.30;99.90;;;;;;5110298;28;20106;-73
2023/02/01 07:51:15;;;;;;;6.83;2.83;;;5.30;99.90;;;;;;5095249;28;20448;-73
2023/02/01 07:53:51;;;;;;;8.23;3.17;;;5.30;99.90;;;;;;5079778;28;20109;-73
2023/02/01 07:56:19;;;;;;;5.93;2.90;;;5.30;99.90;;;;;;5095731;28;20028;-73
2023/02/01 07:58:49;;;;;;;8.40;2.70;;;5.30;99.90;;;;;;5113585;28;20034;-74
2023/02/01 08:01:19;;;;;;;4.87;2.97;;;5.30;99.90;;;;;;5093757;28;20023;-73
2023/02/01 08:03:45;;;;;;;5.40;2.57;;;5.30;99.90;;;;;;5095056;28;20027;-73
2023/02/01 08:06:11;;;;;;;5.10;2.80;;;5.30;99.90;;;;;;5095662;28;20077;-72
2023/02/01 08:08:36;;;;;;;6.23;2.90;;;5.40;99.90;;;;;;5107451;28;20032;-75
2023/02/01 08:11:04;;;;;;;5.33;2.40;;;5.50;99.90;;;;;;5100076;28;20016;-73
2023/02/01 08:13:30;;;;;;;4.90;2.47;;;5.50;99.90;;;;;;5095122;28;20110;-72
2023/02/01 08:16:03;;;;;;;5.53;2.50;;;5.50;99.90;;;;;;5095885;28;20103;-74
2023/02/01 08:18:29;;;;;;;7.43;2.83;;;5.60;99.90;;;;;;5080646;28;20023;-73
2023/02/01 08:20:55;;;;;;;4.83;2.33;;;5.60;99.90;;;;;;5092867;28;20123;-73
2023/02/01 08:23:22;;;;;;;7.13;2.40;;;5.60;99.90;;;;;;5095216;28;20457;-75
2023/02/01 08:25:48;;;;;;;6.63;2.77;;;5.70;99.90;;;;;;5112894;28;20058;-73
2023/02/01 08:28:14;;;;;;;6.67;2.30;;;5.70;99.90;;;;;;5110567;28;20532;-73
2023/02/01 08:30:42;;;;;;;6.70;2.40;;;5.60;99.90;;;;;;5077933;28;20074;-74
2023/02/01 08:33:08;;;;;;;6.33;2.43;;;5.70;99.90;;;;;;5095245;28;20035;-73
2023/02/01 08:35:38;;;;;;;4.30;2.50;;;5.60;99.90;;;;;;5084154;28;20055;-73
2023/02/01 08:38:04;;;;;;;5.13;2.30;;;5.60;99.90;;;;;;5112717;28;20080;-73
2023/02/01 08:40:30;;;;;;;4.83;2.23;;;5.60;99.90;;;;;;5113360;28;20098;-73
2023/02/01 08:42:56;;;;;;;4.57;2.43;;;5.60;99.90;;;;;;5085433;28;20020;-73
2023/02/01 08:45:24;;;;;;;6.63;2.30;;;5.50;99.90;;;;;;5086322;28;20173;-74
2023/02/01 08:47:51;;;;;;;5.83;2.47;;;5.50;99.90;;;;;;5094285;28;20020;-74
2023/02/01 08:50:17;;;;;;;4.23;2.07;;;5.50;99.90;;;;;;5096350;28;20019;-73
2023/02/01 08:52:43;;;;;;;5.70;2.27;;;5.60;99.90;;;;;;5087053;28;20109;-73
2023/02/01 08:55:09;;;;;;;5.90;2.73;;;5.60;99.90;;;;;;5085169;28;20078;-74
2023/02/01 08:57:35;;;;;;;3.43;1.80;;;5.60;99.90;;;;;;5080400;28;20031;-73
2023/02/01 09:00:01;;;;;;;5.10;2.23;;;5.60;99.90;;;;;;5074098;28;20138;-73
2023/02/01 09:02:26;;;;;;;4.17;2.10;;;5.60;99.90;;;;;;5079048;28;20027;-73
2023/02/01 09:04:52;;;;;;;9.33;2.10;;;5.70;99.90;;;;;;5112070;28;20031;-73
2023/02/01 09:07:18;;;;;;;5.77;2.03;;;5.80;99.90;;;;;;5082768;28;20103;-73
2023/02/01 09:09:45;;;;;;;4.23;2.10;;;5.80;99.90;;;;;;5089429;28;20418;-74
2023/02/01 09:12:10;;;;;;;5.27;2.60;;;5.80;99.90;;;;;;5077759;28;20056;-73
2023/02/01 09:14:36;;;;;;;6.17;2.43;;;5.90;99.90;;;;;;5106443;28;20075;-73
2023/02/01 09:17:02;;;;;;;7.00;2.27;;;5.90;99.90;;;;;;5101528;28;20031;-73
2023/02/01 09:19:28;;;;;;;8.07;2.03;;;5.90;99.90;;;;;;5094278;28;20089;-73
2023/02/01 09:21:53;;;;;;;7.07;2.43;;;6.00;99.90;;;;;;5094486;28;20435;-73
2023/02/01 09:24:19;;;;;;;6.70;2.10;;;6.00;99.90;;;;;;5096122;28;20049;-73
2023/02/01 09:26:45;;;;;;;7.67;2.03;;;6.00;99.90;;;;;;5086721;28;20046;-73
2023/02/01 09:29:10;;;;;;;7.03;2.40;;;6.10;99.90;;;;;;5074299;28;20020;-73
2023/02/01 09:31:36;;;;;;;11.23;2.23;;;6.20;99.90;;;;;;5085301;28;20373;-73
2023/02/01 09:34:02;;;;;;;9.57;2.17;;;6.20;99.90;;;;;;5089052;28;20035;-73
2023/02/01 09:36:28;;;;;;;6.73;2.00;;;6.30;99.90;;;;;;5099710;28;20068;-74
2023/02/01 09:38:54;;;;;;;6.17;1.90;;;6.30;99.90;;;;;;5091280;28;20027;-74
2023/02/01 09:41:57;;;;;;;8.47;2.73;;;6.20;99.90;;;;;;5112970;28;20028;-73
2023/02/01 09:44:43;;;;;;;9.97;2.20;;;6.20;99.90;;;;;;5080947;28;20092;-74
2023/02/01 09:47:17;;;;;;;7.90;2.27;;;6.10;99.90;;;;;;5094751;28;20023;-72
2023/02/01 09:49:54;;;;;;;6.03;1.87;;;6.20;99.90;;;;;;5115767;28;20534;-73
2023/02/01 09:52:28;;;;;;;10.03;2.50;;;6.10;99.90;;;;;;5081499;28;20492;-73
2023/02/01 09:55:00;;;;;;;7.37;2.10;;;6.20;99.90;;;;;;5097481;28;20062;-73
2023/02/01 09:57:40;;;;;;;9.23;2.20;;;6.20;99.90;;;;;;5084968;28;20461;-72
2023/02/01 10:00:19;;;;;;;9.50;1.83;;;6.20;99.90;;;;;;5077284;28;20119;-72
2023/02/01 10:02:44;;;;;;;11.50;2.00;;;6.30;99.90;;;;;;5094951;28;20030;-72
2023/02/01 10:05:17;;;;;;;6.10;2.07;;;6.30;99.90;;;;;;5086484;28;20405;-72
2023/02/01 10:07:48;;;;;;;6.80;2.33;;;6.30;99.90;;;;;;5092241;28;20078;-78
2023/02/01 10:10:43;;;;;;;17.80;7.10;;;6.40;99.90;;;;;;5094856;28;20016;-74
2023/02/01 10:13:16;;;;;;;16.13;5.30;;;6.50;99.90;;;;;;5077825;28;20036;-73
2023/02/01 10:16:19;;;;;;;9.50;2.67;;;6.50;99.90;;;;;;5109225;28;20028;-79
2023/02/01 10:19:12;;;;;;;10.47;2.40;;;6.50;99.90;;;;;;5102828;28;20016;-73
2023/02/01 10:22:06;;;;;;;11.87;2.43;;;6.50;99.90;;;;;;5084641;28;20541;-74
2023/02/01 10:24:36;;;;;;;11.73;2.20;;;6.50;99.90;;;;;;5077566;28;20026;-74
2023/02/01 10:27:03;;;;;;;7.60;2.20;;;6.60;99.90;;;;;;5104906;28;20136;-74
2023/02/01 10:29:38;;;;;;;9.90;2.03;;;6.60;99.90;;;;;;5111965;28;20560;-73
2023/02/01 10:32:15;;;;;;;7.23;1.50;;;6.60;99.90;;;;;;5091499;28;20059;-73
2023/02/01 10:34:44;;;;;;;8.10;1.90;;;6.60;99.90;;;;;;5088730;28;20034;-75
2023/02/01 10:37:29;;;;;;;8.30;2.07;;;6.60;99.90;;;;;;5089501;28;20023;-74
2023/02/01 10:40:09;;;;;;;10.93;2.17;;;6.70;99.90;;;;;;5097547;28;20028;-75
2023/02/01 10:42:34;;;;;;;9.10;1.87;;;6.70;99.90;;;;;;5082072;28;20027;-74
2023/02/01 10:45:03;;;;;;;13.47;2.20;;;6.70;99.90;;;;;;5085879;28;20032;-74
2023/02/01 10:47:29;;;;;;;4.93;2.13;;;6.70;99.90;;;;;;5085294;28;20077;-74
2023/02/01 10:50:32;;;;;;;8.70;1.90;;;6.70;99.90;;;;;;5096376;28;20023;-75
2023/02/01 10:53:04;;;;;;;10.00;2.33;;;6.70;99.90;;;;;;5094059;28;20398;-74
2023/02/01 10:55:33;;;;;;;;;;;6.80;99.90;;;;;;5090374;28;20439;-74
2023/02/01 10:58:05;;;;;;;9.70;2.33;;;6.70;99.90;;;;;;5079166;28;20453;-74
2023/02/01 11:00:42;;;;;;;15.38;3.05;;;6.60;99.90;;;;;;5109199;28;20073;-75
2023/02/01 11:03:36;;;;;;;14.00;2.80;;;6.70;99.90;;;;;;5080296;28;20043;-74
2023/02/01 11:06:09;;;;;;;9.53;2.10;;;6.70;99.90;;;;;;5078225;28;20035;-75
2023/02/01 11:08:45;;;;;;;10.80;2.80;;;6.70;99.90;;;;;;5100820;28;20020;-73
2023/02/01 11:11:11;;;;;;;13.90;3.00;;;6.70;99.90;;;;;;5082409;28;20028;-73
2023/02/01 11:13:38;;;;;;;9.73;2.20;;;6.70;99.90;;;;;;5078746;28;20032;-75
2023/02/01 11:16:05;;;;;;;10.97;2.87;;;6.70;99.90;;;;;;5111275;28;20024;-74
2023/02/01 11:18:36;;;;;;;13.23;2.87;;;6.70;99.90;;;;;;5096415;28;20118;-73
2023/02/01 11:21:02;;;;;;;14.00;2.50;;;6.70;99.90;;;;;;5114791;28;20306;-75
2023/02/01 11:23:30;;;;;;;14.00;3.10;;;6.70;99.90;;;;;;5115024;28;20024;-74
2023/02/01 11:26:02;;;;;;;12.43;2.47;;;6.70;99.90;;;;;;5089089;28;20461;-74
2023/02/01 11:28:33;;;;;;;12.10;3.28;;;6.70;99.90;;;;;;5084851;28;20118;-74
2023/02/01 11:31:06;;;;;;;8.43;2.58;;;6.70;99.90;;;;;;5095767;28;20035;-74
2023/02/01 11:33:36;;;;;;;9.50;2.40;;;6.70;99.90;;;;;;5076472;28;20421;-75
2023/02/01 11:36:15;;;;;;;12.33;2.77;;;6.70;99.90;;;;;;5095730;28;20030;-74
2023/02/01 11:38:50;;;;;;;10.83;2.00;;;6.80;99.90;;;;;;5082591;28;20024;-77
2023/02/01 11:41:27;;;;;;;7.83;1.83;;;6.80;99.90;;;;;;5110040;28;20088;-73
2023/02/01 11:43:58;;;;;;;9.83;2.13;;;6.90;99.90;;;;;;5113815;28;20020;-73
2023/02/01 11:46:29;;;;;;;12.93;2.20;;;6.90;99.90;;;;;;5091583;28;20039;-73
2023/02/01 11:48:57;;;;;;;10.53;2.30;;;6.90;99.90;;;;;;5095223;28;20032;-73
2023/02/01 11:52:00;;;;;;;8.60;1.90;;;6.90;99.90;;;;;;5093381;28;20034;-75
2023/02/01 11:54:51;;;;;;;7.23;2.03;;;6.80;99.90;;;;;;5078078;28;20051;-73
2023/02/01 11:57:30;;;;;;;13.70;2.40;;;6.80;99.90;;;;;;5110626;28;20023;-73
2023/02/01 12:00:08;;;;;;;12.50;2.73;;;6.80;99.90;;;;;;5100336;28;20028;-73
2023/02/01 12:02:59;;;;;;;13.83;2.43;;;6.80;99.90;;;;;;5095654;28;20032;-73
2023/02/01 12:05:46;;;;;;;10.20;1.90;;;6.80;99.90;;;;;;5078884;28;20388;-74
2023/02/01 12:08:23;;;;;;;10.10;2.00;;;6.90;99.90;;;;;;5113875;28;20475;-74
2023/02/01 12:10:55;;;;;;;10.87;2.00;;;6.90;99.90;;;;;;5094080;28;20023;-74
2023/02/01 12:13:23;;;;;;;8.32;2.13;;;6.90;99.90;;;;;;5094364;28;20031;-74
2023/02/01 12:16:12;;;;;;;10.67;2.20;;;6.90;99.90;;;;;;5099011;28;20035;-74
2023/02/01 12:19:11;;;;;;;6.93;2.10;;;6.90;99.90;;;;;;5082139;28;20031;-77
2023/02/01 12:22:19;;;;;;;9.73;2.47;;;6.90;99.90;;;;;;5076165;28;20089;-74
2023/02/01 12:24:56;;;;;;;8.23;2.07;;;6.90;99.90;;;;;;5094482;28;20492;-74
2023/02/01 12:27:52;;;;;;;7.37;1.97;;;6.90;99.90;;;;;;5076091;28;20461;-76
2023/02/01 12:30:21;;;;;;;12.07;2.23;;;6.90;99.90;;;;;;5085147;28;20074;-73
2023/02/01 12:33:12;;;;;;;9.27;1.93;;;6.90;99.90;;;;;;5094276;28;20038;-74
2023/02/01 12:35:49;;;;;;;11.15;2.33;;;6.90;99.90;;;;;;5076204;28;20032;-76
2023/02/01 12:38:46;;;;;;;12.37;2.50;;;6.90;99.90;;;;;;5084279;28;20027;-74
2023/02/01 12:41:36;;;;;;;13.60;2.77;;;6.90;99.90;;;;;;5113105;28;20551;-74
2023/02/01 12:44:56;;;;;;;7.97;2.03;;;7.00;99.90;;;;;;5086573;28;20432;-73
2023/02/01 12:47:28;;;;;;;9.10;2.23;;;7.00;99.90;;;;;;4990051;28;20484;-74
2023/02/01 12:50:13;;;;;;;8.47;2.27;;;7.10;99.90;;;;;;5094713;28;20388;-73
2023/02/01 12:52:48;;;;;;;8.67;2.27;;;7.10;99.90;;;;;;5094638;28;20032;-75
2023/02/01 12:55:28;;;;;;;13.67;2.53;;;7.10;99.90;;;;;;5077934;28;20039;-74
2023/02/01 12:58:17;;;;;;;11.90;2.13;;;7.10;99.90;;;;;;5083542;28;20019;-73
2023/02/01 13:00:44;;;;;;;9.70;2.30;;;7.10;99.90;;;;;;5093711;28;20103;-75
2023/02/01 13:03:34;;;;;;;14.33;2.60;;;7.20;99.90;;;;;;5077099;28;20074;-73
2023/02/01 13:06:06;;;;;;;15.23;2.77;;;7.20;99.90;;;;;;5094376;28;20106;-73
2023/02/01 13:08:38;;;;;;;;;;;7.10;99.90;;;;;;5113131;28;20596;-73
2023/02/01 13:11:09;;;;;;;10.65;2.17;;;7.20;99.90;;;;;;5112702;28;19910;-73
2023/02/01 13:14:01;;;;;;;14.90;2.80;;;7.20;99.90;;;;;;5092648;28;20024;-73
2023/02/01 13:16:41;;;;;;;12.75;2.13;;;7.20;99.90;;;;;;5073713;28;20043;-73
2023/02/01 13:19:12;;;;;;;12.30;2.30;;;7.20;99.90;;;;;;5090898;28;20468;-73
2023/02/01 13:21:49;;;;;;;6.53;2.22;;;7.20;99.90;;;;;;5078956;28;20037;-77
2023/02/01 13:24:42;;;;;;;8.77;2.10;;;7.20;99.90;;;;;;5102957;28;20063;-73
2023/02/01 13:27:12;;;;;;;10.83;2.33;;;7.20;99.90;;;;;;5109377;28;20035;-74
2023/02/01 13:29:52;;;;;;;8.03;2.17;;;7.20;99.90;;;;;;5078882;28;20032;-73
2023/02/01 13:32:52;;;;;;;11.90;2.10;;;7.30;99.90;;;;;;5112300;28;20038;-73
2023/02/01 13:35:38;;;;;;;11.67;2.73;;;7.30;99.90;;;;;;5095950;28;20522;-73
2023/02/01 13:38:48;;;;;;;10.80;2.27;;;7.30;99.90;;;;;;5086241;28;20462;-73